sensor_id;sensor_type;location;lat;lon;timestamp;pressure;altitude;pressure_sealevel;temperature;humidity
44934;BME280;30667;43.614;1.442;2022-09-17T00:01:53;100067.75;;;18.46;57.07
44934;BME280;30667;43.614;1.442;2022-09-17T00:04:19;100059.81;;;18.54;56.69
44934;BME280;30667;43.614;1.442;2022-09-17T00:06:45;100061.78;;;18.44;56.89
44934;BME280;30667;43.614;1.442;2022-09-17T00:09:11;100062.47;;;18.41;57.12
44934;BME280;30667;43.614;1.442;2022-09-17T00:11:39;100064.88;;;18.43;57.33
44934;BME280;30667;43.614;1.442;2022-09-17T00:14:06;100062.94;;;18.34;57.39
44934;BME280;30667;43.614;1.442;2022-09-17T00:16:35;100070.56;;;18.29;57.78
44934;BME280;30667;43.614;1.442;2022-09-17T00:19:02;100072.16;;;18.30;58.19
44934;BME280;30667;43.614;1.442;2022-09-17T00:21:28;100069.75;;;18.28;57.71
44934;BME280;30667;43.614;1.442;2022-09-17T00:23:59;100074.75;;;18.26;58.29
44934;BME280;30667;43.614;1.442;2022-09-17T00:26:26;100071.22;;;18.26;58.93
44934;BME280;30667;43.614;1.442;2022-09-17T00:28:53;100070.44;;;18.25;58.91
44934;BME280;30667;43.614;1.442;2022-09-17T00:31:20;100078.47;;;18.22;59.07
44934;BME280;30667;43.614;1.442;2022-09-17T00:33:46;100070.56;;;18.20;58.98
44934;BME280;30667;43.614;1.442;2022-09-17T00:36:11;100077.53;;;18.18;59.38
44934;BME280;30667;43.614;1.442;2022-09-17T00:38:37;100077.84;;;18.16;59.50
44934;BME280;30667;43.614;1.442;2022-09-17T00:41:03;100076.44;;;18.10;59.62
44934;BME280;30667;43.614;1.442;2022-09-17T00:45:58;100078.22;;;17.97;60.07
44934;BME280;30667;43.614;1.442;2022-09-17T00:48:23;100081.28;;;17.95;60.66
44934;BME280;30667;43.614;1.442;2022-09-17T00:50:49;100084.03;;;17.95;60.61
44934;BME280;30667;43.614;1.442;2022-09-17T00:53:18;100084.34;;;17.94;60.84
44934;BME280;30667;43.614;1.442;2022-09-17T00:55:48;100078.84;;;17.85;61.46
44934;BME280;30667;43.614;1.442;2022-09-17T00:58:20;100083.72;;;17.88;61.26
44934;BME280;30667;43.614;1.442;2022-09-17T01:00:47;100084.19;;;17.82;61.24
44934;BME280;30667;43.614;1.442;2022-09-17T01:03:13;100087.25;;;17.80;61.63
44934;BME280;30667;43.614;1.442;2022-09-17T01:05:53;100082.25;;;17.82;61.58
44934;BME280;30667;43.614;1.442;2022-09-17T01:39:02;100100.47;;;17.60;63.31
44934;BME280;30667;43.614;1.442;2022-09-17T01:46:52;100105.44;;;17.50;64.44
44934;BME280;30667;43.614;1.442;2022-09-17T01:49:21;100102.09;;;17.61;64.78
44934;BME280;30667;43.614;1.442;2022-09-17T01:51:50;100108.19;;;17.58;64.83
44934;BME280;30667;43.614;1.442;2022-09-17T01:54:30;100104.50;;;17.63;64.78
44934;BME280;30667;43.614;1.442;2022-09-17T01:57:16;100102.53;;;17.72;64.87
44934;BME280;30667;43.614;1.442;2022-09-17T01:59:45;100105.91;;;17.69;64.79
44934;BME280;30667;43.614;1.442;2022-09-17T02:02:17;100102.56;;;17.64;65.06
44934;BME280;30667;43.614;1.442;2022-09-17T02:05:03;100100.78;;;17.59;65.11
44934;BME280;30667;43.614;1.442;2022-09-17T02:07:31;100089.50;;;17.52;65.61
44934;BME280;30667;43.614;1.442;2022-09-17T02:10:07;100098.22;;;17.54;65.35
44934;BME280;30667;43.614;1.442;2022-09-17T02:12:40;100092.56;;;17.50;66.04
44934;BME280;30667;43.614;1.442;2022-09-17T02:15:13;100094.84;;;17.57;66.05
44934;BME280;30667;43.614;1.442;2022-09-17T02:18:21;100102.56;;;17.46;66.48
44934;BME280;30667;43.614;1.442;2022-09-17T02:20:57;100092.25;;;17.43;66.65
44934;BME280;30667;43.614;1.442;2022-09-17T02:23:29;100095.97;;;17.38;66.87
44934;BME280;30667;43.614;1.442;2022-09-17T02:26:09;100104.16;;;17.38;67.42
44934;BME280;30667;43.614;1.442;2022-09-17T02:31:05;100099.81;;;17.29;68.01
44934;BME280;30667;43.614;1.442;2022-09-17T02:33:32;100102.41;;;17.25;68.53
44934;BME280;30667;43.614;1.442;2022-09-17T02:36:00;100104.63;;;17.23;68.56
44934;BME280;30667;43.614;1.442;2022-09-17T02:38:29;100103.84;;;17.31;68.25
44934;BME280;30667;43.614;1.442;2022-09-17T02:41:14;100112.69;;;17.28;68.48
44934;BME280;30667;43.614;1.442;2022-09-17T02:47:07;100099.66;;;17.25;69.12
44934;BME280;30667;43.614;1.442;2022-09-17T02:54:39;100105.59;;;17.27;69.90
44934;BME280;30667;43.614;1.442;2022-09-17T03:00:20;100103.69;;;17.19;70.98
44934;BME280;30667;43.614;1.442;2022-09-17T03:05:21;100108.16;;;17.15;71.58
44934;BME280;30667;43.614;1.442;2022-09-17T03:07:47;100113.00;;;17.09;72.00
44934;BME280;30667;43.614;1.442;2022-09-17T03:10:13;100107.50;;;17.00;72.66
44934;BME280;30667;43.614;1.442;2022-09-17T03:12:39;100104.28;;;16.98;73.25
44934;BME280;30667;43.614;1.442;2022-09-17T03:15:05;100102.50;;;16.94;73.76
44934;BME280;30667;43.614;1.442;2022-09-17T03:17:31;100102.50;;;16.94;74.13
44934;BME280;30667;43.614;1.442;2022-09-17T03:19:56;100101.72;;;16.93;74.54
44934;BME280;30667;43.614;1.442;2022-09-17T03:22:23;100107.41;;;16.83;75.31
44934;BME280;30667;43.614;1.442;2022-09-17T03:24:48;100103.09;;;16.82;75.79
44934;BME280;30667;43.614;1.442;2022-09-17T03:27:14;100098.44;;;16.82;75.92
44934;BME280;30667;43.614;1.442;2022-09-17T03:29:39;100106.78;;;16.77;76.60
44934;BME280;30667;43.614;1.442;2022-09-17T03:32:05;100100.97;;;16.70;77.44
44934;BME280;30667;43.614;1.442;2022-09-17T03:34:31;100106.09;;;16.71;78.17
44934;BME280;30667;43.614;1.442;2022-09-17T03:36:56;100102.41;;;16.67;78.80
44934;BME280;30667;43.614;1.442;2022-09-17T03:39:23;100097.75;;;16.68;79.39
44934;BME280;30667;43.614;1.442;2022-09-17T03:41:48;100102.69;;;16.57;80.57
44934;BME280;30667;43.614;1.442;2022-09-17T03:44:14;100103.94;;;16.51;81.82
44934;BME280;30667;43.614;1.442;2022-09-17T03:46:40;100102.50;;;16.53;81.78
44934;BME280;30667;43.614;1.442;2022-09-17T03:49:05;100095.56;;;16.47;82.40
44934;BME280;30667;43.614;1.442;2022-09-17T03:51:31;100095.09;;;16.45;83.18
44934;BME280;30667;43.614;1.442;2022-09-17T03:53:56;100100.03;;;16.43;83.55
44934;BME280;30667;43.614;1.442;2022-09-17T03:56:22;100096.97;;;16.36;84.14
44934;BME280;30667;43.614;1.442;2022-09-17T03:58:47;100098.09;;;16.35;84.61
44934;BME280;30667;43.614;1.442;2022-09-17T04:01:13;100101.97;;;16.34;84.73
44934;BME280;30667;43.614;1.442;2022-09-17T04:03:38;100109.16;;;16.30;85.21
44934;BME280;30667;43.614;1.442;2022-09-17T04:06:04;100111.25;;;16.33;85.23
44934;BME280;30667;43.614;1.442;2022-09-17T04:08:29;100104.06;;;16.37;85.27
44934;BME280;30667;43.614;1.442;2022-09-17T04:10:55;100106.28;;;16.35;85.11
44934;BME280;30667;43.614;1.442;2022-09-17T04:13:20;100115.41;;;16.30;85.75
44934;BME280;30667;43.614;1.442;2022-09-17T04:15:46;100116.22;;;16.31;85.77
44934;BME280;30667;43.614;1.442;2022-09-17T04:18:12;100119.44;;;16.33;85.73
44934;BME280;30667;43.614;1.442;2022-09-17T04:20:38;100115.41;;;16.30;85.80
44934;BME280;30667;43.614;1.442;2022-09-17T04:23:04;100110.78;;;16.31;85.83
44934;BME280;30667;43.614;1.442;2022-09-17T04:25:32;100112.38;;;16.32;85.66
44934;BME280;30667;43.614;1.442;2022-09-17T04:27:57;100118.28;;;16.25;86.00
44934;BME280;30667;43.614;1.442;2022-09-17T04:30:22;100116.84;;;16.28;86.05
44934;BME280;30667;43.614;1.442;2022-09-17T04:32:48;100113.13;;;16.24;86.47
44934;BME280;30667;43.614;1.442;2022-09-17T04:35:13;100122.94;;;16.25;86.54
44934;BME280;30667;43.614;1.442;2022-09-17T04:37:39;100125.81;;;16.20;86.69
44934;BME280;30667;43.614;1.442;2022-09-17T04:40:05;100131.00;;;16.30;85.87
44934;BME280;30667;43.614;1.442;2022-09-17T04:42:31;100128.94;;;16.36;85.55
44934;BME280;30667;43.614;1.442;2022-09-17T04:44:56;100132.97;;;16.38;85.63
44934;BME280;30667;43.614;1.442;2022-09-17T04:47:23;100126.06;;;16.41;85.44
44934;BME280;30667;43.614;1.442;2022-09-17T04:49:49;100128.13;;;16.35;85.09
44934;BME280;30667;43.614;1.442;2022-09-17T04:52:14;100135.03;;;16.32;84.84
44934;BME280;30667;43.614;1.442;2022-09-17T04:54:40;100131.00;;;16.30;83.70
44934;BME280;30667;43.614;1.442;2022-09-17T04:57:05;100137.75;;;16.32;84.02
44934;BME280;30667;43.614;1.442;2022-09-17T04:59:30;100139.59;;;16.46;82.78
44934;BME280;30667;43.614;1.442;2022-09-17T05:01:56;100138.59;;;16.42;82.53
44934;BME280;30667;43.614;1.442;2022-09-17T05:04:21;100140.34;;;16.38;82.63
44934;BME280;30667;43.614;1.442;2022-09-17T05:06:47;100138.56;;;16.33;81.90
44934;BME280;30667;43.614;1.442;2022-09-17T05:09:13;100151.41;;;16.32;81.75
44934;BME280;30667;43.614;1.442;2022-09-17T05:11:39;100149.13;;;16.26;81.64
44934;BME280;30667;43.614;1.442;2022-09-17T05:14:04;100155.25;;;16.31;82.26
44934;BME280;30667;43.614;1.442;2022-09-17T05:16:30;100157.66;;;16.33;80.97
44934;BME280;30667;43.614;1.442;2022-09-17T05:18:55;100150.25;;;16.25;80.96
44934;BME280;30667;43.614;1.442;2022-09-17T05:21:22;100152.50;;;16.23;81.49
44934;BME280;30667;43.614;1.442;2022-09-17T05:23:47;100159.50;;;16.15;81.38
44934;BME280;30667;43.614;1.442;2022-09-17T05:26:13;100166.06;;;16.14;81.32
44934;BME280;30667;43.614;1.442;2022-09-17T05:28:39;100171.53;;;16.14;81.13
44934;BME280;30667;43.614;1.442;2022-09-17T05:31:06;100172.16;;;16.11;81.58
44934;BME280;30667;43.614;1.442;2022-09-17T05:33:31;100167.47;;;16.11;81.66
44934;BME280;30667;43.614;1.442;2022-09-17T05:35:57;100166.88;;;16.14;81.94
44934;BME280;30667;43.614;1.442;2022-09-17T05:38:23;100174.56;;;16.12;81.38
44934;BME280;30667;43.614;1.442;2022-09-17T05:40:48;100179.06;;;16.08;81.99
44934;BME280;30667;43.614;1.442;2022-09-17T05:43:14;100177.56;;;16.02;82.14
44934;BME280;30667;43.614;1.442;2022-09-17T05:45:39;100178.06;;;16.04;82.52
44934;BME280;30667;43.614;1.442;2022-09-17T05:48:06;100184.91;;;16.02;82.53
44934;BME280;30667;43.614;1.442;2022-09-17T05:50:32;100182.94;;;15.93;82.65
44934;BME280;30667;43.614;1.442;2022-09-17T05:53:12;100182.59;;;16.09;82.49
44934;BME280;30667;43.614;1.442;2022-09-17T05:55:38;100179.16;;;16.26;80.98
44934;BME280;30667;43.614;1.442;2022-09-17T05:58:14;100184.06;;;16.46;81.42
44934;BME280;30667;43.614;1.442;2022-09-17T06:00:41;100195.59;;;16.34;80.44
44934;BME280;30667;43.614;1.442;2022-09-17T06:03:10;100198.28;;;16.26;80.90
44934;BME280;30667;43.614;1.442;2022-09-17T06:05:36;100196.97;;;16.23;81.53
44934;BME280;30667;43.614;1.442;2022-09-17T06:08:02;100197.09;;;16.18;82.20
44934;BME280;30667;43.614;1.442;2022-09-17T06:10:27;100203.50;;;16.13;82.68
44934;BME280;30667;43.614;1.442;2022-09-17T06:12:57;100196.09;;;16.14;82.97
44934;BME280;30667;43.614;1.442;2022-09-17T06:15:24;100200.94;;;16.17;82.93
44934;BME280;30667;43.614;1.442;2022-09-17T06:17:50;100212.28;;;16.33;82.50
44934;BME280;30667;43.614;1.442;2022-09-17T06:20:17;100205.91;;;16.15;82.83
44934;BME280;30667;43.614;1.442;2022-09-17T06:22:42;100211.81;;;16.08;83.49
44934;BME280;30667;43.614;1.442;2022-09-17T06:25:08;100210.97;;;16.08;83.70
44934;BME280;30667;43.614;1.442;2022-09-17T06:27:34;100200.88;;;16.31;84.42
44934;BME280;30667;43.614;1.442;2022-09-17T06:30:00;100209.75;;;16.14;83.64
44934;BME280;30667;43.614;1.442;2022-09-17T06:32:26;100208.31;;;16.16;83.76
44934;BME280;30667;43.614;1.442;2022-09-17T06:34:51;100213.22;;;16.28;82.70
44934;BME280;30667;43.614;1.442;2022-09-17T06:37:18;100204.78;;;17.01;86.34
44934;BME280;30667;43.614;1.442;2022-09-17T06:39:43;100204.25;;;17.39;80.69
44934;BME280;30667;43.614;1.442;2022-09-17T06:42:10;100210.66;;;17.35;83.27
44934;BME280;30667;43.614;1.442;2022-09-17T06:44:36;100206.94;;;17.31;81.51
44934;BME280;30667;43.614;1.442;2022-09-17T06:47:02;100210.19;;;17.50;79.05
44934;BME280;30667;43.614;1.442;2022-09-17T06:49:28;100207.19;;;17.78;75.33
44934;BME280;30667;43.614;1.442;2022-09-17T06:51:55;100210.31;;;17.19;75.65
44934;BME280;30667;43.614;1.442;2022-09-17T06:54:20;100218.56;;;17.36;76.67
44934;BME280;30667;43.614;1.442;2022-09-17T06:56:46;100205.59;;;17.86;78.28
44934;BME280;30667;43.614;1.442;2022-09-17T06:59:12;100218.63;;;17.97;77.30
44934;BME280;30667;43.614;1.442;2022-09-17T07:01:37;100221.50;;;17.49;75.23
44934;BME280;30667;43.614;1.442;2022-09-17T07:04:03;100238.59;;;17.14;76.79
44934;BME280;30667;43.614;1.442;2022-09-17T07:06:28;100231.59;;;17.48;75.28
44934;BME280;30667;43.614;1.442;2022-09-17T07:08:53;100230.66;;;17.44;74.47
44934;BME280;30667;43.614;1.442;2022-09-17T07:11:19;100221.03;;;17.06;76.50
44934;BME280;30667;43.614;1.442;2022-09-17T07:13:44;100230.50;;;16.69;79.73
44934;BME280;30667;43.614;1.442;2022-09-17T07:16:10;100225.22;;;16.73;79.87
44934;BME280;30667;43.614;1.442;2022-09-17T07:18:35;100232.22;;;16.65;80.58
44934;BME280;30667;43.614;1.442;2022-09-17T07:21:03;100230.66;;;16.73;80.14
44934;BME280;30667;43.614;1.442;2022-09-17T07:23:31;100229.66;;;16.68;80.45
44934;BME280;30667;43.614;1.442;2022-09-17T07:25:59;100230.41;;;16.51;81.50
44934;BME280;30667;43.614;1.442;2022-09-17T07:28:26;100229.22;;;16.75;80.61
44934;BME280;30667;43.614;1.442;2022-09-17T07:30:53;100228.72;;;16.64;80.89
44934;BME280;30667;43.614;1.442;2022-09-17T07:33:22;100224.34;;;16.63;81.76
44934;BME280;30667;43.614;1.442;2022-09-17T07:35:53;100232.91;;;16.70;81.18
44934;BME280;30667;43.614;1.442;2022-09-17T07:38:19;100228.78;;;16.82;80.09
44934;BME280;30667;43.614;1.442;2022-09-17T07:40:55;100232.31;;;16.82;79.90
44934;BME280;30667;43.614;1.442;2022-09-17T07:43:28;100236.16;;;16.81;79.89
44934;BME280;30667;43.614;1.442;2022-09-17T07:45:56;100232.31;;;16.82;80.06
44934;BME280;30667;43.614;1.442;2022-09-17T07:48:22;100225.19;;;16.95;79.54
44934;BME280;30667;43.614;1.442;2022-09-17T07:50:47;100236.09;;;16.95;79.10
44934;BME280;30667;43.614;1.442;2022-09-17T07:53:13;100234.06;;;16.78;79.72
44934;BME280;30667;43.614;1.442;2022-09-17T07:55:38;100235.91;;;16.60;81.14
44934;BME280;30667;43.614;1.442;2022-09-17T07:58:04;100241.31;;;16.51;82.15
44934;BME280;30667;43.614;1.442;2022-09-17T08:00:30;100240.81;;;16.49;82.72
44934;BME280;30667;43.614;1.442;2022-09-17T08:02:56;100232.69;;;16.58;82.16
44934;BME280;30667;43.614;1.442;2022-09-17T08:05:22;100232.69;;;16.58;82.30
44934;BME280;30667;43.614;1.442;2022-09-17T08:07:50;100236.13;;;16.73;80.98
44934;BME280;30667;43.614;1.442;2022-09-17T08:10:16;100236.78;;;16.78;80.45
44934;BME280;30667;43.614;1.442;2022-09-17T08:12:49;100240.72;;;16.86;80.67
44934;BME280;30667;43.614;1.442;2022-09-17T08:15:16;100247.19;;;16.90;80.64
44934;BME280;30667;43.614;1.442;2022-09-17T08:17:43;100243.06;;;17.01;79.27
44934;BME280;30667;43.614;1.442;2022-09-17T08:20:09;100250.78;;;16.99;78.60
44934;BME280;30667;43.614;1.442;2022-09-17T08:22:34;100237.53;;;17.41;81.00
44934;BME280;30667;43.614;1.442;2022-09-17T08:24:59;100255.78;;;17.15;78.02
44934;BME280;30667;43.614;1.442;2022-09-17T08:27:25;100258.47;;;16.97;78.84
44934;BME280;30667;43.614;1.442;2022-09-17T08:29:50;100261.97;;;16.89;79.03
44934;BME280;30667;43.614;1.442;2022-09-17T08:32:16;100264.63;;;17.12;78.12
44934;BME280;30667;43.614;1.442;2022-09-17T08:34:41;100272.56;;;17.22;76.82
44934;BME280;30667;43.614;1.442;2022-09-17T08:37:06;100276.56;;;17.24;75.95
44934;BME280;30667;43.614;1.442;2022-09-17T08:39:32;100266.97;;;17.36;75.05
44934;BME280;30667;43.614;1.442;2022-09-17T08:42:06;100268.41;;;17.33;75.25
44934;BME280;30667;43.614;1.442;2022-09-17T08:44:45;100269.06;;;17.39;73.88
44934;BME280;30667;43.614;1.442;2022-09-17T08:49:57;100276.19;;;17.49;73.95
44934;BME280;30667;43.614;1.442;2022-09-17T08:55:50;100276.25;;;17.75;67.68
44934;BME280;30667;43.614;1.442;2022-09-17T09:01:37;100276.56;;;17.73;70.52
44934;BME280;30667;43.614;1.442;2022-09-17T09:07:05;100284.66;;;17.96;59.56
44934;BME280;30667;43.614;1.442;2022-09-17T09:09:37;100277.28;;;18.05;60.33
44934;BME280;30667;43.614;1.442;2022-09-17T09:12:17;100276.59;;;18.52;61.41
44934;BME280;30667;43.614;1.442;2022-09-17T09:15:05;100277.81;;;18.81;59.64
44934;BME280;30667;43.614;1.442;2022-09-17T09:17:42;100271.41;;;18.68;55.66
44934;BME280;30667;43.614;1.442;2022-09-17T09:20:29;100275.28;;;18.67;54.27
44934;BME280;30667;43.614;1.442;2022-09-17T09:23:09;100270.16;;;18.48;50.20
44934;BME280;30667;43.614;1.442;2022-09-17T09:25:53;100268.00;;;19.27;67.63
44934;BME280;30667;43.614;1.442;2022-09-17T09:28:34;100264.38;;;19.44;48.86
44934;BME280;30667;43.614;1.442;2022-09-17T09:33:31;100265.16;;;19.45;50.25
44934;BME280;30667;43.614;1.442;2022-09-17T09:35:57;100258.59;;;19.07;47.45
44934;BME280;30667;43.614;1.442;2022-09-17T09:38:35;100271.72;;;18.84;44.64
44934;BME280;30667;43.614;1.442;2022-09-17T09:43:46;100264.78;;;18.86;45.99
44934;BME280;30667;43.614;1.442;2022-09-17T09:52:45;100276.63;;;19.08;47.10
44934;BME280;30667;43.614;1.442;2022-09-17T09:58:40;100268.47;;;18.91;43.76
44934;BME280;30667;43.614;1.442;2022-09-17T10:01:16;100257.81;;;18.98;44.44
44934;BME280;30667;43.614;1.442;2022-09-17T10:03:45;100252.06;;;19.20;44.04
44934;BME280;30667;43.614;1.442;2022-09-17T10:06:12;100261.25;;;19.24;42.68
44934;BME280;30667;43.614;1.442;2022-09-17T10:11:19;100271.06;;;19.26;43.30
44934;BME280;30667;43.614;1.442;2022-09-17T10:13:45;100264.97;;;19.20;42.82
44934;BME280;30667;43.614;1.442;2022-09-17T10:18:44;100263.34;;;19.28;45.40
44934;BME280;30667;43.614;1.442;2022-09-17T10:21:25;100256.13;;;19.74;44.06
44934;BME280;30667;43.614;1.442;2022-09-17T10:23:54;100259.63;;;19.83;45.12
44934;BME280;30667;43.614;1.442;2022-09-17T10:26:25;100251.91;;;19.76;43.99
44934;BME280;30667;43.614;1.442;2022-09-17T10:28:56;100258.78;;;19.91;47.98
44934;BME280;30667;43.614;1.442;2022-09-17T10:31:23;100260.44;;;20.05;48.46
44934;BME280;30667;43.614;1.442;2022-09-17T10:34:01;100251.25;;;19.80;41.20
44934;BME280;30667;43.614;1.442;2022-09-17T10:36:43;100250.00;;;19.77;41.32
44934;BME280;30667;43.614;1.442;2022-09-17T10:42:00;100255.88;;;20.09;48.54
44934;BME280;30667;43.614;1.442;2022-09-17T10:44:36;100248.50;;;20.01;41.16
44934;BME280;30667;43.614;1.442;2022-09-17T10:47:12;100252.34;;;19.87;40.82
44934;BME280;30667;43.614;1.442;2022-09-17T10:49:45;100252.06;;;20.01;45.34
44934;BME280;30667;43.614;1.442;2022-09-17T10:52:25;100244.34;;;20.16;47.52
44934;BME280;30667;43.614;1.442;2022-09-17T10:55:06;100234.84;;;19.92;40.66
44934;BME280;30667;43.614;1.442;2022-09-17T11:00:41;100234.00;;;19.79;41.17
44934;BME280;30667;43.614;1.442;2022-09-17T11:09:01;100224.50;;;20.10;40.44
44934;BME280;30667;43.614;1.442;2022-09-17T11:19:43;100214.13;;;20.16;40.06
44934;BME280;30667;43.614;1.442;2022-09-17T11:24:59;100216.16;;;20.06;38.35
44934;BME280;30667;43.614;1.442;2022-09-17T11:30:13;100213.88;;;19.87;39.04
44934;BME280;30667;43.614;1.442;2022-09-17T11:35:08;100200.13;;;20.08;37.25
44934;BME280;30667;43.614;1.442;2022-09-17T11:40:13;100194.41;;;20.13;38.16
44934;BME280;30667;43.614;1.442;2022-09-17T11:42:48;100197.38;;;20.08;35.45
44934;BME280;30667;43.614;1.442;2022-09-17T11:45:22;100202.31;;;20.15;35.32
44934;BME280;30667;43.614;1.442;2022-09-17T11:47:59;100204.56;;;20.34;41.56
44934;BME280;30667;43.614;1.442;2022-09-17T11:50:31;100197.81;;;20.31;39.34
44934;BME280;30667;43.614;1.442;2022-09-17T11:55:43;100188.88;;;20.22;37.04
44934;BME280;30667;43.614;1.442;2022-09-17T11:58:26;100195.31;;;20.05;36.06
44934;BME280;30667;43.614;1.442;2022-09-17T12:01:00;100186.06;;;20.10;36.52
44934;BME280;30667;43.614;1.442;2022-09-17T12:03:33;100183.59;;;20.17;35.70
44934;BME280;30667;43.614;1.442;2022-09-17T12:06:13;100189.31;;;20.24;34.36
44934;BME280;30667;43.614;1.442;2022-09-17T12:09:03;100180.91;;;20.54;49.01
44934;BME280;30667;43.614;1.442;2022-09-17T12:12:05;100180.78;;;20.38;35.31
44934;BME280;30667;43.614;1.442;2022-09-17T12:17:15;100183.06;;;20.48;34.86
44934;BME280;30667;43.614;1.442;2022-09-17T12:19:55;100175.00;;;20.31;32.55
44934;BME280;30667;43.614;1.442;2022-09-17T12:22:26;100175.41;;;20.42;41.15
44934;BME280;30667;43.614;1.442;2022-09-17T12:24:54;100172.66;;;20.42;40.76
44934;BME280;30667;43.614;1.442;2022-09-17T12:40:55;100151.72;;;20.49;35.63
44934;BME280;30667;43.614;1.442;2022-09-17T12:43:41;100147.22;;;20.45;35.78
44934;BME280;30667;43.614;1.442;2022-09-17T12:46:46;100148.28;;;20.53;38.64
44934;BME280;30667;43.614;1.442;2022-09-17T12:52:06;100135.34;;;20.41;36.04
44934;BME280;30667;43.614;1.442;2022-09-17T13:00:14;100123.09;;;20.50;38.02
44934;BME280;30667;43.614;1.442;2022-09-17T13:06:02;100129.84;;;20.53;37.99
44934;BME280;30667;43.614;1.442;2022-09-17T13:11:38;100131.09;;;20.56;35.50
44934;BME280;30667;43.614;1.442;2022-09-17T13:14:19;100124.84;;;20.67;44.17
44934;BME280;30667;43.614;1.442;2022-09-17T13:17:03;100116.59;;;20.67;40.84
44934;BME280;30667;43.614;1.442;2022-09-17T13:22:06;100103.66;;;20.68;35.09
44934;BME280;30667;43.614;1.442;2022-09-17T13:24:35;100105.72;;;20.71;32.12
44934;BME280;30667;43.614;1.442;2022-09-17T13:27:03;100107.66;;;20.71;31.88
44934;BME280;30667;43.614;1.442;2022-09-17T13:35:27;100111.97;;;20.59;31.79
44934;BME280;30667;43.614;1.442;2022-09-17T13:42:55;100098.56;;;20.58;31.80
44934;BME280;30667;43.614;1.442;2022-09-17T13:45:23;100105.69;;;20.59;32.12
44934;BME280;30667;43.614;1.442;2022-09-17T13:50:27;100080.06;;;20.79;37.41
44934;BME280;30667;43.614;1.442;2022-09-17T13:52:55;100086.81;;;20.70;32.65
44934;BME280;30667;43.614;1.442;2022-09-17T13:55:33;100087.38;;;20.75;38.96
44934;BME280;30667;43.614;1.442;2022-09-17T13:58:04;100082.22;;;20.74;31.60
44934;BME280;30667;43.614;1.442;2022-09-17T14:08:50;100075.69;;;20.91;35.50
44934;BME280;30667;43.614;1.442;2022-09-17T14:21:28;100061.94;;;20.78;30.56
44934;BME280;30667;43.614;1.442;2022-09-17T14:23:58;100066.50;;;20.86;37.91
44934;BME280;30667;43.614;1.442;2022-09-17T14:26:46;100062.72;;;20.91;39.55
44934;BME280;30667;43.614;1.442;2022-09-17T14:32:07;100061.66;;;21.08;35.06
44934;BME280;30667;43.614;1.442;2022-09-17T14:34:35;100063.38;;;21.13;31.65
44934;BME280;30667;43.614;1.442;2022-09-17T14:37:01;100058.41;;;21.18;36.07
44934;BME280;30667;43.614;1.442;2022-09-17T14:39:35;100054.78;;;21.14;30.65
44934;BME280;30667;43.614;1.442;2022-09-17T14:42:04;100055.31;;;21.20;29.43
44934;BME280;30667;43.614;1.442;2022-09-17T14:44:34;100045.59;;;21.22;29.22
44934;BME280;30667;43.614;1.442;2022-09-17T14:47:07;100053.19;;;21.41;35.18
44934;BME280;30667;43.614;1.442;2022-09-17T14:49:37;100058.22;;;21.39;29.26
44934;BME280;30667;43.614;1.442;2022-09-17T14:52:31;100045.28;;;21.40;29.76
44934;BME280;30667;43.614;1.442;2022-09-17T14:55:19;100042.19;;;21.41;31.92
44934;BME280;30667;43.614;1.442;2022-09-17T14:57:49;100041.44;;;21.57;29.00
44934;BME280;30667;43.614;1.442;2022-09-17T15:00:18;100047.69;;;21.70;29.69
44934;BME280;30667;43.614;1.442;2022-09-17T15:02:49;100042.72;;;21.59;29.81
44934;BME280;30667;43.614;1.442;2022-09-17T15:05:29;100038.22;;;21.83;29.49
44934;BME280;30667;43.614;1.442;2022-09-17T15:08:18;100037.66;;;21.77;30.29
44934;BME280;30667;43.614;1.442;2022-09-17T15:10:59;100032.06;;;21.74;29.29
44934;BME280;30667;43.614;1.442;2022-09-17T15:13:28;100037.50;;;21.70;29.03
44934;BME280;30667;43.614;1.442;2022-09-17T15:16:02;100030.63;;;21.64;29.11
44934;BME280;30667;43.614;1.442;2022-09-17T15:18:36;100032.69;;;21.67;29.53
44934;BME280;30667;43.614;1.442;2022-09-17T15:21:05;100030.09;;;21.74;28.98
44934;BME280;30667;43.614;1.442;2022-09-17T15:23:36;100026.41;;;21.67;29.02
44934;BME280;30667;43.614;1.442;2022-09-17T15:26:02;100029.28;;;21.58;28.63
44934;BME280;30667;43.614;1.442;2022-09-17T15:28:37;100026.13;;;21.44;29.33
44934;BME280;30667;43.614;1.442;2022-09-17T15:31:05;100026.13;;;21.44;28.87
44934;BME280;30667;43.614;1.442;2022-09-17T15:33:38;100030.63;;;21.36;28.63
44934;BME280;30667;43.614;1.442;2022-09-17T15:36:11;100031.13;;;21.26;28.66
44934;BME280;30667;43.614;1.442;2022-09-17T15:38:40;100031.19;;;21.41;28.74
44934;BME280;30667;43.614;1.442;2022-09-17T15:41:22;100032.31;;;21.40;28.54
44934;BME280;30667;43.614;1.442;2022-09-17T15:43:48;100029.38;;;21.33;29.63
44934;BME280;30667;43.614;1.442;2022-09-17T15:46:27;100029.25;;;21.30;28.81
44934;BME280;30667;43.614;1.442;2022-09-17T15:48:54;100032.34;;;21.28;28.75
44934;BME280;30667;43.614;1.442;2022-09-17T15:53:59;100025.66;;;21.13;28.83
44934;BME280;30667;43.614;1.442;2022-09-17T15:56:33;100025.75;;;21.17;28.83
44934;BME280;30667;43.614;1.442;2022-09-17T16:04:27;100027.09;;;21.23;28.76
44934;BME280;30667;43.614;1.442;2022-09-17T16:07:25;100030.22;;;21.21;28.87
44934;BME280;30667;43.614;1.442;2022-09-17T16:09:52;100031.75;;;21.07;29.05
44934;BME280;30667;43.614;1.442;2022-09-17T16:12:22;100028.75;;;21.12;29.17
44934;BME280;30667;43.614;1.442;2022-09-17T16:14:50;100033.41;;;21.23;30.09
44934;BME280;30667;43.614;1.442;2022-09-17T16:19:45;100040.09;;;21.10;28.29
44934;BME280;30667;43.614;1.442;2022-09-17T16:22:10;100042.66;;;21.03;28.28
44934;BME280;30667;43.614;1.442;2022-09-17T16:24:35;100032.09;;;21.05;33.06